Airport View

Enter AWOS ICAO identifier for current METAR.

ex. KFNL

KMCK 210053Z AUTO 16017G26KT 10SM CLR 26/16 A2976 RMK AO2 PK WND 15031/0022 SLP053 T02610161

21 Sep 2019 01:24

Frequency: 119.025

Phone: 308-345-1193

Other Area AWOS: KIML - KOIN - KLXN - KCBK

TAF KMCK 202320Z 2100/2124 16019G31KT P6SM SKC FM210600 20012G18KT P6SM SCT100 FM211000 29012KT P6SM SCT100 FM211500 34010G16KT P6SM SCT200